sensor_id;sensor_type;location;lat;lon;timestamp;P1;durP1;ratioP1;P2;durP2;ratioP2
11039;SDS011;5573;49.592;8.662;2022-09-13T00:01:56;557.70;;;523.13;;
11039;SDS011;5573;49.592;8.662;2022-09-13T00:04:44;534.42;;;501.50;;
11039;SDS011;5573;49.592;8.662;2022-09-13T00:07:34;542.50;;;508.35;;
11039;SDS011;5573;49.592;8.662;2022-09-13T00:10:22;555.22;;;520.92;;
11039;SDS011;5573;49.592;8.662;2022-09-13T00:13:11;545.00;;;511.60;;
11039;SDS011;5573;49.592;8.662;2022-09-13T00:16:00;514.22;;;482.00;;
11039;SDS011;5573;49.592;8.662;2022-09-13T00:18:50;560.63;;;524.92;;
11039;SDS011;5573;49.592;8.662;2022-09-13T00:21:39;563.83;;;527.85;;
11039;SDS011;5573;49.592;8.662;2022-09-13T00:24:28;570.08;;;533.72;;
11039;SDS011;5573;49.592;8.662;2022-09-13T00:27:16;535.45;;;501.38;;
11039;SDS011;5573;49.592;8.662;2022-09-13T00:30:04;546.08;;;511.60;;
11039;SDS011;5573;49.592;8.662;2022-09-13T00:32:54;554.00;;;518.95;;
11039;SDS011;5573;49.592;8.662;2022-09-13T00:35:42;528.65;;;495.05;;
11039;SDS011;5573;49.592;8.662;2022-09-13T00:38:30;551.90;;;517.22;;
11039;SDS011;5573;49.592;8.662;2022-09-13T00:41:20;542.97;;;508.92;;
11039;SDS011;5573;49.592;8.662;2022-09-13T00:47:32;500.10;;;468.73;;
11039;SDS011;5573;49.592;8.662;2022-09-13T00:50:24;520.83;;;487.70;;
11039;SDS011;5573;49.592;8.662;2022-09-13T00:53:18;527.90;;;494.85;;
11039;SDS011;5573;49.592;8.662;2022-09-13T00:56:12;531.15;;;498.52;;
11039;SDS011;5573;49.592;8.662;2022-09-13T00:59:06;510.98;;;478.45;;
11039;SDS011;5573;49.592;8.662;2022-09-13T01:01:56;531.15;;;497.77;;
11039;SDS011;5573;49.592;8.662;2022-09-13T01:04:44;510.55;;;478.02;;
11039;SDS011;5573;49.592;8.662;2022-09-13T01:07:32;535.55;;;502.17;;
11039;SDS011;5573;49.592;8.662;2022-09-13T01:10:21;523.90;;;490.38;;
11039;SDS011;5573;49.592;8.662;2022-09-13T01:13:10;515.53;;;483.73;;
11039;SDS011;5573;49.592;8.662;2022-09-13T01:16:04;533.75;;;501.20;;
11039;SDS011;5573;49.592;8.662;2022-09-13T01:18:52;526.17;;;494.00;;
11039;SDS011;5573;49.592;8.662;2022-09-13T01:21:51;526.15;;;493.85;;
11039;SDS011;5573;49.592;8.662;2022-09-13T01:28:31;508.52;;;477.30;;
11039;SDS011;5573;49.592;8.662;2022-09-13T01:31:36;496.48;;;466.25;;
11039;SDS011;5573;49.592;8.662;2022-09-13T01:34:33;531.17;;;498.40;;
11039;SDS011;5573;49.592;8.662;2022-09-13T01:37:40;498.48;;;468.55;;
11039;SDS011;5573;49.592;8.662;2022-09-13T01:40:41;513.50;;;482.58;;
11039;SDS011;5573;49.592;8.662;2022-09-13T01:43:46;514.47;;;483.25;;
11039;SDS011;5573;49.592;8.662;2022-09-13T01:46:44;479.83;;;450.88;;
11039;SDS011;5573;49.592;8.662;2022-09-13T01:49:39;524.88;;;492.50;;
11039;SDS011;5573;49.592;8.662;2022-09-13T01:52:36;489.50;;;460.15;;
11039;SDS011;5573;49.592;8.662;2022-09-13T01:55:32;523.13;;;491.38;;
11039;SDS011;5573;49.592;8.662;2022-09-13T01:58:27;516.15;;;484.88;;
11039;SDS011;5573;49.592;8.662;2022-09-13T02:01:25;504.73;;;473.77;;
11039;SDS011;5573;49.592;8.662;2022-09-13T02:04:20;478.98;;;449.60;;
11039;SDS011;5573;49.592;8.662;2022-09-13T02:07:12;496.88;;;465.88;;
11039;SDS011;5573;49.592;8.662;2022-09-13T02:10:05;531.08;;;498.73;;
11039;SDS011;5573;49.592;8.662;2022-09-13T02:12:56;505.35;;;475.02;;
11039;SDS011;5573;49.592;8.662;2022-09-13T02:15:46;531.08;;;498.92;;
11039;SDS011;5573;49.592;8.662;2022-09-13T02:18:38;497.00;;;466.17;;
11039;SDS011;5573;49.592;8.662;2022-09-13T02:21:29;516.17;;;484.33;;
11039;SDS011;5573;49.592;8.662;2022-09-13T02:24:25;513.30;;;482.13;;
11039;SDS011;5573;49.592;8.662;2022-09-13T02:27:19;506.08;;;475.17;;
11039;SDS011;5573;49.592;8.662;2022-09-13T02:30:11;527.50;;;495.27;;
11039;SDS011;5573;49.592;8.662;2022-09-13T02:33:02;494.77;;;465.55;;
11039;SDS011;5573;49.592;8.662;2022-09-13T02:35:55;505.67;;;474.90;;
11039;SDS011;5573;49.592;8.662;2022-09-13T02:38:50;514.58;;;483.15;;
11039;SDS011;5573;49.592;8.662;2022-09-13T02:41:45;505.65;;;475.67;;
11039;SDS011;5573;49.592;8.662;2022-09-13T02:44:39;496.83;;;466.77;;
11039;SDS011;5573;49.592;8.662;2022-09-13T02:47:32;513.67;;;482.48;;
11039;SDS011;5573;49.592;8.662;2022-09-13T02:50:32;490.60;;;460.95;;
11039;SDS011;5573;49.592;8.662;2022-09-13T02:53:33;501.13;;;471.35;;
11039;SDS011;5573;49.592;8.662;2022-09-13T02:56:29;516.80;;;486.35;;
11039;SDS011;5573;49.592;8.662;2022-09-13T02:59:23;490.23;;;460.73;;
11039;SDS011;5573;49.592;8.662;2022-09-13T03:02:13;523.17;;;491.85;;
11039;SDS011;5573;49.592;8.662;2022-09-13T03:05:03;517.13;;;485.00;;
11039;SDS011;5573;49.592;8.662;2022-09-13T03:07:51;524.80;;;493.65;;
11039;SDS011;5573;49.592;8.662;2022-09-13T03:10:44;497.83;;;468.25;;
11039;SDS011;5573;49.592;8.662;2022-09-13T03:17:02;538.90;;;507.30;;
11039;SDS011;5573;49.592;8.662;2022-09-13T03:20:05;495.30;;;465.08;;
11039;SDS011;5573;49.592;8.662;2022-09-13T03:23:00;512.45;;;481.55;;
11039;SDS011;5573;49.592;8.662;2022-09-13T03:26:07;526.05;;;494.08;;
11039;SDS011;5573;49.592;8.662;2022-09-13T03:29:15;523.13;;;491.98;;
11039;SDS011;5573;49.592;8.662;2022-09-13T03:32:16;534.30;;;502.17;;
11039;SDS011;5573;49.592;8.662;2022-09-13T03:35:14;506.42;;;476.05;;
11039;SDS011;5573;49.592;8.662;2022-09-13T03:38:10;518.60;;;486.98;;
11039;SDS011;5573;49.592;8.662;2022-09-13T03:41:04;531.03;;;499.27;;
11039;SDS011;5573;49.592;8.662;2022-09-13T03:43:55;517.22;;;486.25;;
11039;SDS011;5573;49.592;8.662;2022-09-13T03:46:47;501.05;;;470.80;;
11039;SDS011;5573;49.592;8.662;2022-09-13T03:49:38;532.25;;;499.38;;
11039;SDS011;5573;49.592;8.662;2022-09-13T03:52:27;531.97;;;499.17;;
11039;SDS011;5573;49.592;8.662;2022-09-13T03:55:16;538.08;;;504.65;;
11039;SDS011;5573;49.592;8.662;2022-09-13T03:58:05;530.20;;;498.00;;
11039;SDS011;5573;49.592;8.662;2022-09-13T04:00:53;544.40;;;511.75;;
11039;SDS011;5573;49.592;8.662;2022-09-13T04:03:42;494.50;;;463.83;;
11039;SDS011;5573;49.592;8.662;2022-09-13T04:06:30;518.35;;;486.35;;
11039;SDS011;5573;49.592;8.662;2022-09-13T04:09:18;541.35;;;508.63;;
11039;SDS011;5573;49.592;8.662;2022-09-13T04:12:06;528.17;;;496.35;;
11039;SDS011;5573;49.592;8.662;2022-09-13T04:14:55;493.63;;;463.92;;
11039;SDS011;5573;49.592;8.662;2022-09-13T04:17:43;535.38;;;502.67;;
11039;SDS011;5573;49.592;8.662;2022-09-13T04:20:32;507.48;;;475.95;;
11039;SDS011;5573;49.592;8.662;2022-09-13T04:23:21;531.90;;;499.67;;
11039;SDS011;5573;49.592;8.662;2022-09-13T04:26:09;501.23;;;471.52;;
11039;SDS011;5573;49.592;8.662;2022-09-13T04:28:57;505.98;;;475.33;;
11039;SDS011;5573;49.592;8.662;2022-09-13T04:31:45;517.85;;;486.65;;
11039;SDS011;5573;49.592;8.662;2022-09-13T04:34:33;530.65;;;497.85;;
11039;SDS011;5573;49.592;8.662;2022-09-13T04:37:23;503.80;;;473.77;;
11039;SDS011;5573;49.592;8.662;2022-09-13T04:40:12;474.35;;;445.30;;
11039;SDS011;5573;49.592;8.662;2022-09-13T04:43:00;511.08;;;480.23;;
11039;SDS011;5573;49.592;8.662;2022-09-13T04:45:48;521.15;;;489.38;;
11039;SDS011;5573;49.592;8.662;2022-09-13T04:48:37;539.63;;;506.65;;
11039;SDS011;5573;49.592;8.662;2022-09-13T04:51:24;509.90;;;478.70;;
11039;SDS011;5573;49.592;8.662;2022-09-13T04:54:14;516.05;;;483.95;;
11039;SDS011;5573;49.592;8.662;2022-09-13T04:57:02;515.83;;;485.08;;
11039;SDS011;5573;49.592;8.662;2022-09-13T04:59:50;513.47;;;482.70;;
11039;SDS011;5573;49.592;8.662;2022-09-13T05:02:38;518.67;;;486.25;;
11039;SDS011;5573;49.592;8.662;2022-09-13T05:05:26;516.53;;;485.25;;
11039;SDS011;5573;49.592;8.662;2022-09-13T05:08:15;527.45;;;494.90;;
11039;SDS011;5573;49.592;8.662;2022-09-13T05:11:05;491.08;;;461.38;;
11039;SDS011;5573;49.592;8.662;2022-09-13T05:13:54;506.85;;;476.08;;
11039;SDS011;5573;49.592;8.662;2022-09-13T05:16:44;492.92;;;463.25;;
11039;SDS011;5573;49.592;8.662;2022-09-13T05:19:31;505.73;;;476.42;;
11039;SDS011;5573;49.592;8.662;2022-09-13T05:22:20;522.03;;;490.20;;
11039;SDS011;5573;49.592;8.662;2022-09-13T05:25:08;537.78;;;504.83;;
11039;SDS011;5573;49.592;8.662;2022-09-13T05:27:58;530.60;;;498.40;;
11039;SDS011;5573;49.592;8.662;2022-09-13T05:30:53;549.83;;;515.83;;
11039;SDS011;5573;49.592;8.662;2022-09-13T05:33:42;531.92;;;499.80;;
11039;SDS011;5573;49.592;8.662;2022-09-13T05:36:31;539.22;;;507.05;;
11039;SDS011;5573;49.592;8.662;2022-09-13T05:39:19;535.13;;;502.70;;
11039;SDS011;5573;49.592;8.662;2022-09-13T05:42:28;501.83;;;472.40;;
11039;SDS011;5573;49.592;8.662;2022-09-13T05:45:17;534.22;;;501.17;;
11039;SDS011;5573;49.592;8.662;2022-09-13T05:48:05;528.78;;;496.27;;
11039;SDS011;5573;49.592;8.662;2022-09-13T05:50:53;537.83;;;504.42;;
11039;SDS011;5573;49.592;8.662;2022-09-13T05:53:45;526.00;;;493.20;;
11039;SDS011;5573;49.592;8.662;2022-09-13T05:56:34;534.50;;;501.55;;
11039;SDS011;5573;49.592;8.662;2022-09-13T05:59:22;527.72;;;495.35;;
11039;SDS011;5573;49.592;8.662;2022-09-13T06:02:11;543.90;;;510.58;;
11039;SDS011;5573;49.592;8.662;2022-09-13T06:04:59;552.30;;;518.15;;
11039;SDS011;5573;49.592;8.662;2022-09-13T06:07:47;547.58;;;514.10;;
11039;SDS011;5573;49.592;8.662;2022-09-13T06:10:35;523.50;;;490.35;;
11039;SDS011;5573;49.592;8.662;2022-09-13T06:13:23;532.65;;;500.50;;
11039;SDS011;5573;49.592;8.662;2022-09-13T06:16:12;554.42;;;519.97;;
11039;SDS011;5573;49.592;8.662;2022-09-13T06:19:03;523.53;;;491.40;;
11039;SDS011;5573;49.592;8.662;2022-09-13T06:21:51;546.63;;;512.75;;
11039;SDS011;5573;49.592;8.662;2022-09-13T06:24:39;540.13;;;507.60;;
11039;SDS011;5573;49.592;8.662;2022-09-13T06:27:27;517.70;;;486.08;;
11039;SDS011;5573;49.592;8.662;2022-09-13T06:30:16;532.42;;;500.10;;
11039;SDS011;5573;49.592;8.662;2022-09-13T06:33:05;515.85;;;484.40;;
11039;SDS011;5573;49.592;8.662;2022-09-13T06:35:54;519.03;;;488.00;;
11039;SDS011;5573;49.592;8.662;2022-09-13T06:38:46;513.95;;;481.52;;
11039;SDS011;5573;49.592;8.662;2022-09-13T06:41:35;510.55;;;480.15;;
11039;SDS011;5573;49.592;8.662;2022-09-13T06:44:25;526.95;;;495.45;;
11039;SDS011;5573;49.592;8.662;2022-09-13T06:47:13;501.83;;;471.02;;
11039;SDS011;5573;49.592;8.662;2022-09-13T06:50:01;522.35;;;489.85;;
11039;SDS011;5573;49.592;8.662;2022-09-13T06:52:50;516.95;;;485.25;;
11039;SDS011;5573;49.592;8.662;2022-09-13T06:55:38;509.70;;;478.40;;
11039;SDS011;5573;49.592;8.662;2022-09-13T06:58:26;531.75;;;498.90;;
11039;SDS011;5573;49.592;8.662;2022-09-13T07:01:15;505.83;;;474.67;;
11039;SDS011;5573;49.592;8.662;2022-09-13T07:04:05;498.27;;;468.33;;
11039;SDS011;5573;49.592;8.662;2022-09-13T07:06:55;531.28;;;498.70;;
11039;SDS011;5573;49.592;8.662;2022-09-13T07:09:44;531.90;;;498.80;;
11039;SDS011;5573;49.592;8.662;2022-09-13T07:12:32;544.08;;;510.25;;
11039;SDS011;5573;49.592;8.662;2022-09-13T07:15:20;509.45;;;477.70;;
11039;SDS011;5573;49.592;8.662;2022-09-13T07:18:08;518.15;;;486.67;;
11039;SDS011;5573;49.592;8.662;2022-09-13T07:20:59;544.35;;;511.35;;
11039;SDS011;5573;49.592;8.662;2022-09-13T07:23:49;519.17;;;487.88;;
11039;SDS011;5573;49.592;8.662;2022-09-13T07:26:40;542.05;;;509.80;;
11039;SDS011;5573;49.592;8.662;2022-09-13T07:29:28;554.30;;;520.05;;
11039;SDS011;5573;49.592;8.662;2022-09-13T07:32:16;540.05;;;506.80;;
11039;SDS011;5573;49.592;8.662;2022-09-13T07:35:05;552.28;;;518.67;;
11039;SDS011;5573;49.592;8.662;2022-09-13T07:37:53;560.50;;;526.40;;
11039;SDS011;5573;49.592;8.662;2022-09-13T07:40:41;543.83;;;511.33;;
11039;SDS011;5573;49.592;8.662;2022-09-13T07:43:30;527.40;;;495.75;;
11039;SDS011;5573;49.592;8.662;2022-09-13T07:46:20;531.58;;;500.02;;
11039;SDS011;5573;49.592;8.662;2022-09-13T07:49:09;525.85;;;494.13;;
11039;SDS011;5573;49.592;8.662;2022-09-13T07:51:58;539.10;;;507.52;;
11039;SDS011;5573;49.592;8.662;2022-09-13T07:54:46;529.35;;;497.20;;
11039;SDS011;5573;49.592;8.662;2022-09-13T07:57:34;517.47;;;486.40;;
11039;SDS011;5573;49.592;8.662;2022-09-13T08:00:23;494.63;;;463.75;;
11039;SDS011;5573;49.592;8.662;2022-09-13T08:03:11;497.13;;;467.27;;
11039;SDS011;5573;49.592;8.662;2022-09-13T08:05:59;500.80;;;470.13;;
11039;SDS011;5573;49.592;8.662;2022-09-13T08:08:47;485.63;;;456.42;;
11039;SDS011;5573;49.592;8.662;2022-09-13T08:11:36;478.85;;;451.13;;
11039;SDS011;5573;49.592;8.662;2022-09-13T08:14:25;468.35;;;440.30;;
11039;SDS011;5573;49.592;8.662;2022-09-13T08:17:15;467.83;;;439.58;;
11039;SDS011;5573;49.592;8.662;2022-09-13T08:20:04;453.65;;;427.20;;
11039;SDS011;5573;49.592;8.662;2022-09-13T08:22:56;460.05;;;432.88;;
11039;SDS011;5573;49.592;8.662;2022-09-13T08:25:44;464.30;;;436.20;;
11039;SDS011;5573;49.592;8.662;2022-09-13T08:28:32;476.38;;;447.98;;
11039;SDS011;5573;49.592;8.662;2022-09-13T08:31:21;477.25;;;448.88;;
11039;SDS011;5573;49.592;8.662;2022-09-13T08:34:11;431.52;;;406.35;;
11039;SDS011;5573;49.592;8.662;2022-09-13T08:37:00;450.58;;;423.38;;
11039;SDS011;5573;49.592;8.662;2022-09-13T08:39:48;459.90;;;432.17;;
11039;SDS011;5573;49.592;8.662;2022-09-13T08:42:44;455.73;;;428.65;;
11039;SDS011;5573;49.592;8.662;2022-09-13T08:45:38;471.30;;;443.38;;
11039;SDS011;5573;49.592;8.662;2022-09-13T08:48:27;453.33;;;426.40;;
11039;SDS011;5573;49.592;8.662;2022-09-13T08:51:25;473.50;;;445.17;;
11039;SDS011;5573;49.592;8.662;2022-09-13T08:54:18;474.25;;;445.98;;
11039;SDS011;5573;49.592;8.662;2022-09-13T08:57:07;478.42;;;449.13;;
11039;SDS011;5573;49.592;8.662;2022-09-13T09:00:04;447.27;;;420.00;;
11039;SDS011;5573;49.592;8.662;2022-09-13T09:03:10;449.08;;;422.23;;
11039;SDS011;5573;49.592;8.662;2022-09-13T09:06:06;468.85;;;441.15;;
11039;SDS011;5573;49.592;8.662;2022-09-13T09:09:03;457.52;;;430.08;;
11039;SDS011;5573;49.592;8.662;2022-09-13T09:11:55;453.08;;;425.90;;
11039;SDS011;5573;49.592;8.662;2022-09-13T09:14:52;446.42;;;418.42;;
11039;SDS011;5573;49.592;8.662;2022-09-13T09:17:47;452.55;;;425.90;;
11039;SDS011;5573;49.592;8.662;2022-09-13T09:20:40;466.42;;;438.63;;
11039;SDS011;5573;49.592;8.662;2022-09-13T09:23:33;484.02;;;455.02;;
11039;SDS011;5573;49.592;8.662;2022-09-13T09:26:26;472.17;;;444.55;;
11039;SDS011;5573;49.592;8.662;2022-09-13T09:29:17;476.75;;;448.23;;
11039;SDS011;5573;49.592;8.662;2022-09-13T09:32:14;473.33;;;445.30;;
11039;SDS011;5573;49.592;8.662;2022-09-13T09:35:14;480.52;;;452.45;;
11039;SDS011;5573;49.592;8.662;2022-09-13T09:38:13;476.55;;;448.50;;
11039;SDS011;5573;49.592;8.662;2022-09-13T09:41:21;445.67;;;419.90;;
11039;SDS011;5573;49.592;8.662;2022-09-13T09:44:16;452.67;;;426.27;;
11039;SDS011;5573;49.592;8.662;2022-09-13T09:47:06;471.90;;;444.33;;
11039;SDS011;5573;49.592;8.662;2022-09-13T09:50:02;472.45;;;444.95;;
11039;SDS011;5573;49.592;8.662;2022-09-13T09:52:56;462.95;;;435.63;;
11039;SDS011;5573;49.592;8.662;2022-09-13T09:55:49;459.50;;;432.55;;
11039;SDS011;5573;49.592;8.662;2022-09-13T09:58:47;443.08;;;417.70;;
11039;SDS011;5573;49.592;8.662;2022-09-13T10:01:36;425.73;;;401.02;;
11039;SDS011;5573;49.592;8.662;2022-09-13T10:04:25;409.83;;;386.58;;
11039;SDS011;5573;49.592;8.662;2022-09-13T10:07:21;412.23;;;388.65;;
11039;SDS011;5573;49.592;8.662;2022-09-13T10:10:19;408.80;;;385.33;;
11039;SDS011;5573;49.592;8.662;2022-09-13T10:13:12;423.95;;;399.65;;
11039;SDS011;5573;49.592;8.662;2022-09-13T10:16:05;427.27;;;402.75;;
11039;SDS011;5573;49.592;8.662;2022-09-13T10:22:12;413.10;;;389.15;;
11039;SDS011;5573;49.592;8.662;2022-09-13T10:25:12;451.73;;;425.10;;
11039;SDS011;5573;49.592;8.662;2022-09-13T10:28:02;427.42;;;402.80;;
11039;SDS011;5573;49.592;8.662;2022-09-13T10:30:55;421.48;;;397.38;;
11039;SDS011;5573;49.592;8.662;2022-09-13T10:33:51;422.33;;;397.58;;
11039;SDS011;5573;49.592;8.662;2022-09-13T10:36:47;390.02;;;367.33;;
11039;SDS011;5573;49.592;8.662;2022-09-13T10:39:47;413.92;;;389.60;;
11039;SDS011;5573;49.592;8.662;2022-09-13T10:42:40;421.98;;;397.27;;
11039;SDS011;5573;49.592;8.662;2022-09-13T10:45:39;414.48;;;390.38;;
11039;SDS011;5573;49.592;8.662;2022-09-13T10:48:29;430.25;;;405.95;;
11039;SDS011;5573;49.592;8.662;2022-09-13T10:51:26;415.58;;;391.13;;
11039;SDS011;5573;49.592;8.662;2022-09-13T10:54:19;418.92;;;394.33;;
11039;SDS011;5573;49.592;8.662;2022-09-13T10:57:19;411.38;;;387.27;;
11039;SDS011;5573;49.592;8.662;2022-09-13T11:00:19;398.80;;;375.42;;
11039;SDS011;5573;49.592;8.662;2022-09-13T11:03:14;431.13;;;406.00;;
11039;SDS011;5573;49.592;8.662;2022-09-13T11:06:17;404.45;;;381.52;;
11039;SDS011;5573;49.592;8.662;2022-09-13T11:09:12;423.55;;;399.48;;
11039;SDS011;5573;49.592;8.662;2022-09-13T11:12:05;425.60;;;401.15;;
11039;SDS011;5573;49.592;8.662;2022-09-13T11:15:00;437.85;;;412.52;;
11039;SDS011;5573;49.592;8.662;2022-09-13T11:18:05;421.65;;;397.23;;
11039;SDS011;5573;49.592;8.662;2022-09-13T11:21:07;428.58;;;403.38;;
11039;SDS011;5573;49.592;8.662;2022-09-13T11:24:14;433.67;;;407.88;;
11039;SDS011;5573;49.592;8.662;2022-09-13T11:27:16;414.67;;;390.55;;
11039;SDS011;5573;49.592;8.662;2022-09-13T11:30:17;415.88;;;392.08;;
11039;SDS011;5573;49.592;8.662;2022-09-13T11:33:11;430.73;;;405.05;;
11039;SDS011;5573;49.592;8.662;2022-09-13T11:36:24;412.60;;;388.65;;
11039;SDS011;5573;49.592;8.662;2022-09-13T11:39:29;402.27;;;378.88;;
11039;SDS011;5573;49.592;8.662;2022-09-13T11:42:22;417.88;;;393.70;;
11039;SDS011;5573;49.592;8.662;2022-09-13T11:45:23;414.05;;;390.30;;
11039;SDS011;5573;49.592;8.662;2022-09-13T11:48:25;424.33;;;399.35;;
11039;SDS011;5573;49.592;8.662;2022-09-13T11:51:27;417.30;;;392.98;;
11039;SDS011;5573;49.592;8.662;2022-09-13T11:54:31;470.92;;;443.42;;
11039;SDS011;5573;49.592;8.662;2022-09-13T11:57:28;478.48;;;449.30;;
11039;SDS011;5573;49.592;8.662;2022-09-13T12:00:20;494.27;;;463.55;;
11039;SDS011;5573;49.592;8.662;2022-09-13T12:03:11;486.65;;;456.60;;
11039;SDS011;5573;49.592;8.662;2022-09-13T12:06:04;507.77;;;476.65;;
11039;SDS011;5573;49.592;8.662;2022-09-13T12:08:58;510.42;;;478.60;;
11039;SDS011;5573;49.592;8.662;2022-09-13T12:11:52;537.13;;;503.38;;
11039;SDS011;5573;49.592;8.662;2022-09-13T12:14:45;508.15;;;475.73;;
11039;SDS011;5573;49.592;8.662;2022-09-13T12:17:38;532.33;;;499.13;;
11039;SDS011;5573;49.592;8.662;2022-09-13T12:20:29;521.80;;;488.85;;
11039;SDS011;5573;49.592;8.662;2022-09-13T12:23:23;541.45;;;507.10;;
11039;SDS011;5573;49.592;8.662;2022-09-13T12:26:17;590.25;;;551.28;;
11039;SDS011;5573;49.592;8.662;2022-09-13T12:29:12;576.95;;;540.67;;
11039;SDS011;5573;49.592;8.662;2022-09-13T12:32:05;569.03;;;532.13;;
11039;SDS011;5573;49.592;8.662;2022-09-13T12:34:56;572.30;;;535.63;;
11039;SDS011;5573;49.592;8.662;2022-09-13T12:37:54;604.05;;;565.67;;
11039;SDS011;5573;49.592;8.662;2022-09-13T12:41:17;576.30;;;539.63;;
11039;SDS011;5573;49.592;8.662;2022-09-13T12:44:35;573.35;;;536.92;;
11039;SDS011;5573;49.592;8.662;2022-09-13T12:47:41;610.77;;;571.90;;
11039;SDS011;5573;49.592;8.662;2022-09-13T12:50:43;589.42;;;551.53;;
11039;SDS011;5573;49.592;8.662;2022-09-13T12:57:02;558.13;;;522.67;;
11039;SDS011;5573;49.592;8.662;2022-09-13T13:00:15;574.25;;;537.95;;
11039;SDS011;5573;49.592;8.662;2022-09-13T13:03:11;555.08;;;520.28;;
11039;SDS011;5573;49.592;8.662;2022-09-13T13:06:07;543.15;;;508.40;;
11039;SDS011;5573;49.592;8.662;2022-09-13T13:09:02;534.08;;;499.98;;
11039;SDS011;5573;49.592;8.662;2022-09-13T13:11:52;514.55;;;482.45;;
11039;SDS011;5573;49.592;8.662;2022-09-13T13:14:44;513.80;;;480.15;;
11039;SDS011;5573;49.592;8.662;2022-09-13T13:17:46;541.97;;;507.60;;
11039;SDS011;5573;49.592;8.662;2022-09-13T13:20:40;516.00;;;483.23;;
11039;SDS011;5573;49.592;8.662;2022-09-13T13:23:31;492.65;;;462.38;;
11039;SDS011;5573;49.592;8.662;2022-09-13T13:29:32;499.65;;;468.92;;
11039;SDS011;5573;49.592;8.662;2022-09-13T13:32:20;492.88;;;463.63;;
11039;SDS011;5573;49.592;8.662;2022-09-13T13:38:38;479.52;;;451.27;;
11039;SDS011;5573;49.592;8.662;2022-09-13T13:41:46;441.92;;;416.13;;
11039;SDS011;5573;49.592;8.662;2022-09-13T13:48:12;417.77;;;393.27;;
11039;SDS011;5573;49.592;8.662;2022-09-13T13:54:27;426.55;;;402.27;;
11039;SDS011;5573;49.592;8.662;2022-09-13T13:57:21;413.38;;;390.35;;
11039;SDS011;5573;49.592;8.662;2022-09-13T14:00:11;413.73;;;389.90;;
11039;SDS011;5573;49.592;8.662;2022-09-13T14:03:07;397.05;;;374.98;;
11039;SDS011;5573;49.592;8.662;2022-09-13T14:06:05;402.00;;;380.10;;
11039;SDS011;5573;49.592;8.662;2022-09-13T14:09:10;381.60;;;360.88;;
11039;SDS011;5573;49.592;8.662;2022-09-13T14:12:20;392.05;;;370.63;;
11039;SDS011;5573;49.592;8.662;2022-09-13T14:15:24;397.08;;;375.33;;
11039;SDS011;5573;49.592;8.662;2022-09-13T14:18:33;407.92;;;385.30;;
11039;SDS011;5573;49.592;8.662;2022-09-13T14:21:31;369.63;;;349.33;;
11039;SDS011;5573;49.592;8.662;2022-09-13T14:24:21;402.10;;;379.67;;
11039;SDS011;5573;49.592;8.662;2022-09-13T14:27:14;401.33;;;379.33;;
11039;SDS011;5573;49.592;8.662;2022-09-13T14:30:16;438.67;;;414.10;;
11039;SDS011;5573;49.592;8.662;2022-09-13T14:33:05;420.98;;;397.15;;
11039;SDS011;5573;49.592;8.662;2022-09-13T14:35:58;426.85;;;402.17;;
11039;SDS011;5573;49.592;8.662;2022-09-13T14:38:48;444.45;;;419.02;;
11039;SDS011;5573;49.592;8.662;2022-09-13T14:41:42;434.10;;;408.65;;
11039;SDS011;5573;49.592;8.662;2022-09-13T14:44:30;424.80;;;399.80;;
11039;SDS011;5573;49.592;8.662;2022-09-13T14:47:19;438.48;;;412.77;;
11039;SDS011;5573;49.592;8.662;2022-09-13T14:50:13;477.73;;;449.13;;
11039;SDS011;5573;49.592;8.662;2022-09-13T14:53:05;500.00;;;469.42;;
11039;SDS011;5573;49.592;8.662;2022-09-13T14:55:55;514.70;;;482.80;;
11039;SDS011;5573;49.592;8.662;2022-09-13T14:58:47;501.98;;;471.25;;
11039;SDS011;5573;49.592;8.662;2022-09-13T15:01:39;513.55;;;482.27;;
11039;SDS011;5573;49.592;8.662;2022-09-13T15:04:26;518.55;;;486.63;;
11039;SDS011;5573;49.592;8.662;2022-09-13T15:07:19;506.50;;;475.08;;
11039;SDS011;5573;49.592;8.662;2022-09-13T15:10:18;503.67;;;471.70;;
11039;SDS011;5573;49.592;8.662;2022-09-13T15:13:09;497.33;;;466.30;;
11039;SDS011;5573;49.592;8.662;2022-09-13T15:15:59;501.33;;;469.80;;
11039;SDS011;5573;49.592;8.662;2022-09-13T15:18:47;517.83;;;485.45;;
11039;SDS011;5573;49.592;8.662;2022-09-13T15:21:35;495.58;;;464.95;;
11039;SDS011;5573;49.592;8.662;2022-09-13T15:24:24;486.38;;;456.08;;
11039;SDS011;5573;49.592;8.662;2022-09-13T15:27:24;493.77;;;463.40;;
11039;SDS011;5573;49.592;8.662;2022-09-13T15:30:21;482.08;;;452.00;;
11039;SDS011;5573;49.592;8.662;2022-09-13T15:33:25;491.25;;;461.27;;
11039;SDS011;5573;49.592;8.662;2022-09-13T15:36:24;500.83;;;469.75;;
11039;SDS011;5573;49.592;8.662;2022-09-13T15:39:15;471.85;;;442.30;;
11039;SDS011;5573;49.592;8.662;2022-09-13T15:42:05;516.00;;;484.40;;
11039;SDS011;5573;49.592;8.662;2022-09-13T15:44:53;509.35;;;477.58;;
11039;SDS011;5573;49.592;8.662;2022-09-13T15:47:43;501.73;;;470.58;;
11039;SDS011;5573;49.592;8.662;2022-09-13T15:50:33;513.25;;;480.48;;
11039;SDS011;5573;49.592;8.662;2022-09-13T15:53:24;508.67;;;476.40;;
11039;SDS011;5573;49.592;8.662;2022-09-13T15:56:12;505.45;;;473.58;;
11039;SDS011;5573;49.592;8.662;2022-09-13T15:59:01;498.42;;;467.67;;
11039;SDS011;5573;49.592;8.662;2022-09-13T16:01:49;506.85;;;474.75;;
11039;SDS011;5573;49.592;8.662;2022-09-13T16:04:38;495.67;;;465.02;;
11039;SDS011;5573;49.592;8.662;2022-09-13T16:07:28;500.60;;;469.25;;
11039;SDS011;5573;49.592;8.662;2022-09-13T16:10:16;530.88;;;498.48;;
11039;SDS011;5573;49.592;8.662;2022-09-13T16:13:06;482.40;;;452.30;;
11039;SDS011;5573;49.592;8.662;2022-09-13T16:15:54;508.48;;;476.10;;
11039;SDS011;5573;49.592;8.662;2022-09-13T16:18:43;505.00;;;472.80;;
11039;SDS011;5573;49.592;8.662;2022-09-13T16:21:32;497.25;;;466.17;;
11039;SDS011;5573;49.592;8.662;2022-09-13T16:24:21;520.90;;;488.20;;
11039;SDS011;5573;49.592;8.662;2022-09-13T16:27:09;508.98;;;476.80;;
11039;SDS011;5573;49.592;8.662;2022-09-13T16:29:59;510.20;;;478.80;;
11039;SDS011;5573;49.592;8.662;2022-09-13T16:32:48;502.02;;;470.27;;
11039;SDS011;5573;49.592;8.662;2022-09-13T16:35:36;508.25;;;476.15;;
11039;SDS011;5573;49.592;8.662;2022-09-13T16:38:24;518.60;;;485.42;;
11039;SDS011;5573;49.592;8.662;2022-09-13T16:41:13;512.17;;;480.33;;
11039;SDS011;5573;49.592;8.662;2022-09-13T16:44:01;525.05;;;491.77;;
11039;SDS011;5573;49.592;8.662;2022-09-13T16:46:50;517.88;;;485.42;;
11039;SDS011;5573;49.592;8.662;2022-09-13T16:49:38;537.25;;;503.70;;
11039;SDS011;5573;49.592;8.662;2022-09-13T16:52:26;519.38;;;486.95;;
11039;SDS011;5573;49.592;8.662;2022-09-13T16:55:15;532.25;;;499.00;;
11039;SDS011;5573;49.592;8.662;2022-09-13T16:58:04;511.48;;;479.52;;
11039;SDS011;5573;49.592;8.662;2022-09-13T17:00:52;536.67;;;501.98;;
11039;SDS011;5573;49.592;8.662;2022-09-13T17:03:40;532.28;;;497.05;;
11039;SDS011;5573;49.592;8.662;2022-09-13T17:06:28;532.05;;;497.00;;